METAR AND TAF INFORMATION
METAR FOR MMMX
ADDS - METARS form results

(2003 UTC 25 April 2018)
Data provider http://aviationweather.gov/adds/metars/
 
METAR text: MMMX 251949Z 28005KT 5SM SCT020TCU BKN080 24/06 A3030 NOSIG RMK 8/260 HZY DSNT PCPN 4TH QUAD
Conditions at: MMMX (MEXICO CITY/LICE, MX) observed 1949 UTC 25 April 2018
Temperature: 24.0°C (75°F)
Dewpoint: 6.0°C (43°F) [RH = 31%]
Pressure (altimeter): 30.30 inches Hg (1026.2 mb)
Winds: from the W (280 degrees) at 6 MPH (5 knots; 2.6 m/s)
Visibility: 5 miles (8 km)
Ceiling: 8000 feet AGL
Clouds: scattered clouds at 2000 feet AGL
broken clouds at 8000 feet AGL
Weather: no significant weather observed at this time

Forecast for: MMMX (MEXICO CITY/LICE, MX)
Text: TAF MMMX 251640Z 2518/2624 18005KT 5SM HZ SCT025 TX24/2521Z TN14/2612Z
Forecast period: 1800 to 2000 UTC 25 April 2018
Forecast type: FROM: standard forecast or significant change
Winds: from the S (180 degrees) at 6 MPH (5 knots; 2.6 m/s)
Visibility: 5 miles (8 km)
Clouds: scattered clouds at 2500 feet AGL
Weather: HZ  (haze)
Forecast for: MMMX (MEXICO CITY/LICE, MX)
Text: TAF MMMX 251640Z 2518/2624 18005KT 5SM HZ SCT025 TX24/2521Z TN14/2612Z
Forecast period: 1800 to 2000 UTC 25 April 2018
Forecast type: FROM: standard forecast or significant change
Winds: from the S (180 degrees) at 6 MPH (5 knots; 2.6 m/s)
Visibility: 5 miles (8 km)
Clouds: scattered clouds at 2500 feet AGL
Weather: HZ  (haze)
Forecast for: MMMX (MEXICO CITY/LICE, MX)
Text: TAF MMMX 251640Z 2518/2624 18005KT 5SM HZ SCT025 TX24/2521Z TN14/2612Z
Forecast period: 2000 UTC 25 April 2018 to 0100 UTC 26 April 2018
Forecast type: FROM: standard forecast or significant change
Winds: from the SW (230 degrees) at 14 MPH (12 knots; 6.2 m/s)
Visibility: 6 or more miles (10+ km)
Ceiling: 2500 feet AGL
Clouds: broken clouds at 2500 feet AGL
Weather: no significant weather forecast for this period
Forecast for: MMMX (MEXICO CITY/LICE, MX)
Text: TAF MMMX 251640Z 2518/2624 18005KT 5SM HZ SCT025 TX24/2521Z TN14/2612Z
Forecast period: 2000 UTC 25 April 2018 to 0100 UTC 26 April 2018
Forecast type: FROM: standard forecast or significant change
Winds: from the SW (230 degrees) at 14 MPH (12 knots; 6.2 m/s)
Visibility: 6 or more miles (10+ km)
Ceiling: 2500 feet AGL
Clouds: broken clouds at 2500 feet AGL
Weather: no significant weather forecast for this period
Forecast for: MMMX (MEXICO CITY/LICE, MX)
Text: TAF MMMX 251640Z 2518/2624 18005KT 5SM HZ SCT025 TX24/2521Z TN14/2612Z
Forecast period: 2100 UTC 25 April 2018 to 0100 UTC 26 April 2018
Forecast type: TEMPORARY: The following changes expected for less than half the time period
Visibility: 4 miles (6 km)
Weather: TSRA  (rain associated with thunderstorm(s))
Forecast for: MMMX (MEXICO CITY/LICE, MX)
Text: TAF MMMX 251640Z 2518/2624 18005KT 5SM HZ SCT025 TX24/2521Z TN14/2612Z
Forecast period: 2100 UTC 25 April 2018 to 0100 UTC 26 April 2018
Forecast type: TEMPORARY: The following changes expected for less than half the time period
Visibility: 4 miles (6 km)
Weather: TSRA  (rain associated with thunderstorm(s))
Forecast for: MMMX (MEXICO CITY/LICE, MX)
Text: TAF MMMX 251640Z 2518/2624 18005KT 5SM HZ SCT025 TX24/2521Z TN14/2612Z
Forecast period: 0100 to 0400 UTC 26 April 2018
Forecast type: FROM: standard forecast or significant change
Winds: from the WNW (300 degrees) at 17 MPH (15 knots; 7.8 m/s)
Visibility: 5 miles (8 km)
Ceiling: 2000 feet AGL
Clouds: broken clouds at 2000 feet AGL
overcast cloud deck at 8000 feet AGL
Weather: TSRA  (rain associated with thunderstorm(s))
Forecast for: MMMX (MEXICO CITY/LICE, MX)
Text: TAF MMMX 251640Z 2518/2624 18005KT 5SM HZ SCT025 TX24/2521Z TN14/2612Z
Forecast period: 0100 to 0400 UTC 26 April 2018
Forecast type: FROM: standard forecast or significant change
Winds: from the WNW (300 degrees) at 17 MPH (15 knots; 7.8 m/s)
Visibility: 5 miles (8 km)
Ceiling: 2000 feet AGL
Clouds: broken clouds at 2000 feet AGL
overcast cloud deck at 8000 feet AGL
Weather: TSRA  (rain associated with thunderstorm(s))
Forecast for: MMMX (MEXICO CITY/LICE, MX)
Text: TAF MMMX 251640Z 2518/2624 18005KT 5SM HZ SCT025 TX24/2521Z TN14/2612Z
Forecast period: 0400 to 1300 UTC 26 April 2018
Forecast type: FROM: standard forecast or significant change
Winds: from the NE (40 degrees) at 12 MPH (10 knots; 5.2 m/s)
Visibility: 6 or more miles (10+ km)
Ceiling: 8000 feet AGL
Clouds: scattered clouds at 2000 feet AGL
broken clouds at 8000 feet AGL
Weather: no significant weather forecast for this period
Forecast for: MMMX (MEXICO CITY/LICE, MX)
Text: TAF MMMX 251640Z 2518/2624 18005KT 5SM HZ SCT025 TX24/2521Z TN14/2612Z
Forecast period: 0400 to 1300 UTC 26 April 2018
Forecast type: FROM: standard forecast or significant change
Winds: from the NE (40 degrees) at 12 MPH (10 knots; 5.2 m/s)
Visibility: 6 or more miles (10+ km)
Ceiling: 8000 feet AGL
Clouds: scattered clouds at 2000 feet AGL
broken clouds at 8000 feet AGL
Weather: no significant weather forecast for this period
Forecast for: MMMX (MEXICO CITY/LICE, MX)
Text: TAF MMMX 251640Z 2518/2624 18005KT 5SM HZ SCT025 TX24/2521Z TN14/2612Z
Forecast period: 1300 to 2100 UTC 26 April 2018
Forecast type: FROM: standard forecast or significant change
Winds: calm
Visibility: 5 miles (8 km)
Clouds: scattered clouds at 2000 feet AGL
Weather: HZ  (haze)
Forecast for: MMMX (MEXICO CITY/LICE, MX)
Text: TAF MMMX 251640Z 2518/2624 18005KT 5SM HZ SCT025 TX24/2521Z TN14/2612Z
Forecast period: 1300 to 2100 UTC 26 April 2018
Forecast type: FROM: standard forecast or significant change
Winds: calm
Visibility: 5 miles (8 km)
Clouds: scattered clouds at 2000 feet AGL
Weather: HZ  (haze)
Forecast for: MMMX (MEXICO CITY/LICE, MX)
Text: TAF MMMX 251640Z 2518/2624 18005KT 5SM HZ SCT025 TX24/2521Z TN14/2612Z
Forecast period: 2100 UTC 26 April 2018 to 0000 UTC 27 April 2018
Forecast type: FROM: standard forecast or significant change
Winds: from the NE (40 degrees) at 17 MPH (15 knots; 7.8 m/s)
Visibility: 5 miles (8 km)
Ceiling: 2500 feet AGL
Clouds: broken clouds at 2500 feet AGL
Weather: VC TSRA  (vicinity, rain associated with thunderstorm(s))
Forecast for: MMMX (MEXICO CITY/LICE, MX)
Text: TAF MMMX 251640Z 2518/2624 18005KT 5SM HZ SCT025 TX24/2521Z TN14/2612Z
Forecast period: 2100 UTC 26 April 2018 to 0000 UTC 27 April 2018
Forecast type: FROM: standard forecast or significant change
Winds: from the NE (40 degrees) at 17 MPH (15 knots; 7.8 m/s)
Visibility: 5 miles (8 km)
Ceiling: 2500 feet AGL
Clouds: broken clouds at 2500 feet AGL
Weather: VC TSRA  (vicinity, rain associated with thunderstorm(s))

 AIRPORT MAP

 RUNWAY INFORMATION
Runway 05L Runway length 12966 ft Runway width 148 ft
Runway elevation 7309 ft Runway displaced threshold 1034 ft Runway heading 59
Runway 23R Runway length 12966 ft Runway width 148 ft
Runway elevation 7311 ft Runway displaced threshold 1641 ft Runway heading 239
Runway 05R Runway length 12795 ft Runway width 148 ft
Runway elevation 7316 ft Runway displaced threshold 1493 ft Runway heading 59
Runway 23L Runway length 12795 ft Runway width 148 ft
Runway elevation 7295 ft Runway displaced threshold 0 ft Runway heading 239

 AIRPORT FREQUENCIES
Type APP Name MEXICO APP Frequency 121.2 MHZ
Type ARR Name MEXICO ARR Frequency 129.6 MHZ
Type ATIS Name ATIS Frequency 127.65 MHZ
Type CLD Name MEXICO CLN Frequency 122.1 MHZ
Type DEP Name MEXICO DEP Frequency 120.5 MHZ
Type GND Name GND Frequency 121 MHZ
Type RDO Name MEXICO INF Frequency 126.9 MHZ
Type TWR Name MEXICO TWR Frequency 118.55 MHZ

 AIRPORT NEAR NAVIGATION AIDS
Type VOR-DME Name Mexico Frequency 115600 KHZ
Type NDB Name Plaza Frequency 370 KHZ
Type NDB Name Tepexpan Frequency 359 KHZ



Powered by Virtual Airlines Manager [v2.6.2]